Ancora, New Jersey
Current Conditions -  °F | °C
As of 10:54 PM on Friday 24 Oct 2014 (Local Time) from KACY Reporting Station
Clear Clear  
Wind Chill: 55°   Ceiling: Unl
Heat Index: 55°   Visibility: 10mi
Dew Point: 40°   Wind: 8mph
Humidity: 57%   Direction: 270°W
Pressure: 29.86"   Gusts: NA
Location:  39.637°N, 74.7602°W
Report Text: KACY 250254Z 27007KT 10SM CLR 13/04 A2986 RMK AO2 SLP110 T01280044 51005
Loading
Personal Weather Stations






























Interactive Weather Map New forecast layout! Learn more

10-Day Weather Forecast

Advertisements
Track Severe Weather on mobile